sensor_id;sensor_type;location;lat;lon;timestamp;temperature;humidity
36374;DHT22;22399;51.346;12.372;2023-04-12T00:00:05;5.20;99.60
36374;DHT22;22399;51.346;12.372;2023-04-12T00:02:38;5.20;99.70
36374;DHT22;22399;51.346;12.372;2023-04-12T00:05:09;5.20;99.60
36374;DHT22;22399;51.346;12.372;2023-04-12T00:07:40;5.20;99.70
36374;DHT22;22399;51.346;12.372;2023-04-12T00:10:13;5.20;99.50
36374;DHT22;22399;51.346;12.372;2023-04-12T00:12:41;5.10;99.40
36374;DHT22;22399;51.346;12.372;2023-04-12T00:15:10;5.00;99.50
36374;DHT22;22399;51.346;12.372;2023-04-12T00:17:39;5.00;99.90
36374;DHT22;22399;51.346;12.372;2023-04-12T00:20:09;5.00;99.90
36374;DHT22;22399;51.346;12.372;2023-04-12T00:22:39;5.00;99.90
36374;DHT22;22399;51.346;12.372;2023-04-12T00:25:08;4.90;99.90
36374;DHT22;22399;51.346;12.372;2023-04-12T00:27:37;4.90;99.90
36374;DHT22;22399;51.346;12.372;2023-04-12T00:30:06;4.90;99.90
36374;DHT22;22399;51.346;12.372;2023-04-12T00:32:35;4.90;99.90
36374;DHT22;22399;51.346;12.372;2023-04-12T00:35:06;4.90;99.90
36374;DHT22;22399;51.346;12.372;2023-04-12T00:37:35;4.90;99.90
36374;DHT22;22399;51.346;12.372;2023-04-12T00:40:07;4.90;99.90
36374;DHT22;22399;51.346;12.372;2023-04-12T00:42:36;4.90;99.90
36374;DHT22;22399;51.346;12.372;2023-04-12T00:45:06;4.90;99.90
36374;DHT22;22399;51.346;12.372;2023-04-12T00:47:36;4.90;99.90
36374;DHT22;22399;51.346;12.372;2023-04-12T00:50:07;4.90;99.90
36374;DHT22;22399;51.346;12.372;2023-04-12T00:52:37;4.90;99.90
36374;DHT22;22399;51.346;12.372;2023-04-12T00:55:07;4.90;99.90
36374;DHT22;22399;51.346;12.372;2023-04-12T00:57:37;4.80;99.90
36374;DHT22;22399;51.346;12.372;2023-04-12T01:00:08;4.90;99.90
36374;DHT22;22399;51.346;12.372;2023-04-12T01:02:39;4.80;99.90
36374;DHT22;22399;51.346;12.372;2023-04-12T01:05:10;4.80;99.90
36374;DHT22;22399;51.346;12.372;2023-04-12T01:08:01;4.80;99.90
36374;DHT22;22399;51.346;12.372;2023-04-12T01:10:40;4.80;99.90
36374;DHT22;22399;51.346;12.372;2023-04-12T01:13:19;4.80;99.90
36374;DHT22;22399;51.346;12.372;2023-04-12T01:15:53;4.80;99.90
36374;DHT22;22399;51.346;12.372;2023-04-12T01:18:24;4.80;99.90
36374;DHT22;22399;51.346;12.372;2023-04-12T01:21:01;4.80;99.90
36374;DHT22;22399;51.346;12.372;2023-04-12T01:23:47;4.90;99.90
36374;DHT22;22399;51.346;12.372;2023-04-12T01:26:29;4.90;99.90
36374;DHT22;22399;51.346;12.372;2023-04-12T01:29:08;4.80;99.90
36374;DHT22;22399;51.346;12.372;2023-04-12T01:31:42;4.80;99.90
36374;DHT22;22399;51.346;12.372;2023-04-12T01:34:12;4.80;99.90
36374;DHT22;22399;51.346;12.372;2023-04-12T01:36:41;4.80;99.90
36374;DHT22;22399;51.346;12.372;2023-04-12T01:39:11;4.90;99.90
36374;DHT22;22399;51.346;12.372;2023-04-12T01:41:41;4.90;99.90
36374;DHT22;22399;51.346;12.372;2023-04-12T01:44:13;4.90;99.90
36374;DHT22;22399;51.346;12.372;2023-04-12T01:46:42;5.00;99.90
36374;DHT22;22399;51.346;12.372;2023-04-12T01:49:13;5.00;99.90
36374;DHT22;22399;51.346;12.372;2023-04-12T01:51:49;5.00;99.90
36374;DHT22;22399;51.346;12.372;2023-04-12T01:54:21;5.00;99.90
36374;DHT22;22399;51.346;12.372;2023-04-12T01:56:55;5.00;99.90
36374;DHT22;22399;51.346;12.372;2023-04-12T01:59:30;5.00;99.90
36374;DHT22;22399;51.346;12.372;2023-04-12T02:02:00;5.00;99.90
36374;DHT22;22399;51.346;12.372;2023-04-12T02:04:31;5.00;99.90
36374;DHT22;22399;51.346;12.372;2023-04-12T02:07:01;5.00;99.90
36374;DHT22;22399;51.346;12.372;2023-04-12T02:09:30;5.00;99.90
36374;DHT22;22399;51.346;12.372;2023-04-12T02:12:04;4.90;99.90
36374;DHT22;22399;51.346;12.372;2023-04-12T02:14:36;4.90;99.90
36374;DHT22;22399;51.346;12.372;2023-04-12T02:17:05;4.90;99.90
36374;DHT22;22399;51.346;12.372;2023-04-12T02:19:34;4.90;99.90
36374;DHT22;22399;51.346;12.372;2023-04-12T02:22:02;4.90;99.90
36374;DHT22;22399;51.346;12.372;2023-04-12T02:24:32;4.90;99.90
36374;DHT22;22399;51.346;12.372;2023-04-12T02:27:00;4.90;99.90
36374;DHT22;22399;51.346;12.372;2023-04-12T02:29:29;4.90;99.90
36374;DHT22;22399;51.346;12.372;2023-04-12T02:31:59;5.00;99.90
36374;DHT22;22399;51.346;12.372;2023-04-12T02:34:28;5.00;99.90
36374;DHT22;22399;51.346;12.372;2023-04-12T02:37:11;5.10;99.90
36374;DHT22;22399;51.346;12.372;2023-04-12T02:39:42;5.20;99.90
36374;DHT22;22399;51.346;12.372;2023-04-12T02:42:11;5.20;99.90
36374;DHT22;22399;51.346;12.372;2023-04-12T02:44:40;5.20;99.90
36374;DHT22;22399;51.346;12.372;2023-04-12T02:47:16;5.20;99.90
36374;DHT22;22399;51.346;12.372;2023-04-12T02:49:47;5.20;99.90
36374;DHT22;22399;51.346;12.372;2023-04-12T02:52:17;5.20;99.90
36374;DHT22;22399;51.346;12.372;2023-04-12T02:55:08;5.20;99.90
36374;DHT22;22399;51.346;12.372;2023-04-12T02:57:37;5.20;99.80
36374;DHT22;22399;51.346;12.372;2023-04-12T03:00:07;5.20;99.80
36374;DHT22;22399;51.346;12.372;2023-04-12T03:02:48;5.20;99.80
36374;DHT22;22399;51.346;12.372;2023-04-12T03:05:22;5.20;99.70
36374;DHT22;22399;51.346;12.372;2023-04-12T03:07:52;5.20;99.60
36374;DHT22;22399;51.346;12.372;2023-04-12T03:10:27;5.10;99.60
36374;DHT22;22399;51.346;12.372;2023-04-12T03:13:01;5.10;99.60
36374;DHT22;22399;51.346;12.372;2023-04-12T03:15:38;5.10;99.60
36374;DHT22;22399;51.346;12.372;2023-04-12T03:18:08;5.00;99.80
36374;DHT22;22399;51.346;12.372;2023-04-12T03:20:43;5.00;99.70
36374;DHT22;22399;51.346;12.372;2023-04-12T03:23:14;5.00;99.70
36374;DHT22;22399;51.346;12.372;2023-04-12T03:25:47;4.90;99.90
36374;DHT22;22399;51.346;12.372;2023-04-12T03:28:42;4.80;99.90
36374;DHT22;22399;51.346;12.372;2023-04-12T03:31:12;4.70;99.90
36374;DHT22;22399;51.346;12.372;2023-04-12T03:33:45;4.70;99.90
36374;DHT22;22399;51.346;12.372;2023-04-12T03:36:24;4.60;99.90
36374;DHT22;22399;51.346;12.372;2023-04-12T03:39:00;4.60;99.90
36374;DHT22;22399;51.346;12.372;2023-04-12T03:41:32;4.60;99.90
36374;DHT22;22399;51.346;12.372;2023-04-12T03:44:03;4.60;99.90
36374;DHT22;22399;51.346;12.372;2023-04-12T03:46:34;4.60;99.90
36374;DHT22;22399;51.346;12.372;2023-04-12T03:49:09;4.60;99.90
36374;DHT22;22399;51.346;12.372;2023-04-12T03:51:39;4.60;99.90
36374;DHT22;22399;51.346;12.372;2023-04-12T03:54:09;4.60;99.90
36374;DHT22;22399;51.346;12.372;2023-04-12T03:56:49;4.60;99.90
36374;DHT22;22399;51.346;12.372;2023-04-12T03:59:25;4.60;99.90
36374;DHT22;22399;51.346;12.372;2023-04-12T04:01:54;4.60;99.90
36374;DHT22;22399;51.346;12.372;2023-04-12T04:04:27;4.70;99.90
36374;DHT22;22399;51.346;12.372;2023-04-12T04:06:59;4.70;99.90
36374;DHT22;22399;51.346;12.372;2023-04-12T04:09:37;4.80;99.90
36374;DHT22;22399;51.346;12.372;2023-04-12T04:12:07;4.80;99.90
36374;DHT22;22399;51.346;12.372;2023-04-12T04:14:38;4.90;99.90
36374;DHT22;22399;51.346;12.372;2023-04-12T04:17:10;4.90;99.90
36374;DHT22;22399;51.346;12.372;2023-04-12T04:19:40;5.00;99.90
36374;DHT22;22399;51.346;12.372;2023-04-12T04:22:09;5.10;99.90
36374;DHT22;22399;51.346;12.372;2023-04-12T04:24:39;5.20;99.90
36374;DHT22;22399;51.346;12.372;2023-04-12T04:27:07;5.20;99.90
36374;DHT22;22399;51.346;12.372;2023-04-12T04:29:36;5.20;99.90
36374;DHT22;22399;51.346;12.372;2023-04-12T04:32:12;5.30;99.90
36374;DHT22;22399;51.346;12.372;2023-04-12T04:34:44;5.30;99.70
36374;DHT22;22399;51.346;12.372;2023-04-12T04:37:17;5.30;99.80
36374;DHT22;22399;51.346;12.372;2023-04-12T04:39:47;5.30;99.80
36374;DHT22;22399;51.346;12.372;2023-04-12T04:42:16;5.30;99.80
36374;DHT22;22399;51.346;12.372;2023-04-12T04:44:59;5.40;99.80
36374;DHT22;22399;51.346;12.372;2023-04-12T04:47:40;5.40;99.70
36374;DHT22;22399;51.346;12.372;2023-04-12T04:50:11;5.40;99.70
36374;DHT22;22399;51.346;12.372;2023-04-12T04:52:39;5.50;99.80
36374;DHT22;22399;51.346;12.372;2023-04-12T04:55:12;5.50;99.80
36374;DHT22;22399;51.346;12.372;2023-04-12T04:57:43;5.60;99.90
36374;DHT22;22399;51.346;12.372;2023-04-12T05:00:14;5.70;99.90
36374;DHT22;22399;51.346;12.372;2023-04-12T05:02:47;5.70;99.90
36374;DHT22;22399;51.346;12.372;2023-04-12T05:05:23;5.80;99.80
36374;DHT22;22399;51.346;12.372;2023-04-12T05:07:59;5.80;99.70
36374;DHT22;22399;51.346;12.372;2023-04-12T05:10:30;5.80;99.60
36374;DHT22;22399;51.346;12.372;2023-04-12T05:13:01;5.80;99.60
36374;DHT22;22399;51.346;12.372;2023-04-12T05:15:30;5.80;99.70
36374;DHT22;22399;51.346;12.372;2023-04-12T05:17:59;5.90;99.70
36374;DHT22;22399;51.346;12.372;2023-04-12T05:20:30;5.90;99.70
36374;DHT22;22399;51.346;12.372;2023-04-12T05:22:59;5.90;99.80
36374;DHT22;22399;51.346;12.372;2023-04-12T05:25:27;5.90;99.80
36374;DHT22;22399;51.346;12.372;2023-04-12T05:28:03;5.90;99.90
36374;DHT22;22399;51.346;12.372;2023-04-12T05:30:32;5.90;99.80
36374;DHT22;22399;51.346;12.372;2023-04-12T05:33:02;6.00;99.70
36374;DHT22;22399;51.346;12.372;2023-04-12T05:35:32;6.00;99.70
36374;DHT22;22399;51.346;12.372;2023-04-12T05:38:01;6.10;99.80
36374;DHT22;22399;51.346;12.372;2023-04-12T05:40:31;6.20;99.60
36374;DHT22;22399;51.346;12.372;2023-04-12T05:42:59;6.30;99.00
36374;DHT22;22399;51.346;12.372;2023-04-12T05:45:30;6.40;98.90
36374;DHT22;22399;51.346;12.372;2023-04-12T05:48:00;6.40;98.50
36374;DHT22;22399;51.346;12.372;2023-04-12T05:50:29;6.40;98.40
36374;DHT22;22399;51.346;12.372;2023-04-12T05:52:59;6.50;98.40
36374;DHT22;22399;51.346;12.372;2023-04-12T05:55:31;6.60;98.30
36374;DHT22;22399;51.346;12.372;2023-04-12T05:58:02;6.60;98.20
36374;DHT22;22399;51.346;12.372;2023-04-12T06:00:31;6.60;97.90
36374;DHT22;22399;51.346;12.372;2023-04-12T06:02:59;6.60;97.60
36374;DHT22;22399;51.346;12.372;2023-04-12T06:05:28;6.60;97.60
36374;DHT22;22399;51.346;12.372;2023-04-12T06:07:57;6.70;97.40
36374;DHT22;22399;51.346;12.372;2023-04-12T06:10:27;6.80;97.50
36374;DHT22;22399;51.346;12.372;2023-04-12T06:12:55;6.90;97.30
36374;DHT22;22399;51.346;12.372;2023-04-12T06:15:24;7.00;96.90
36374;DHT22;22399;51.346;12.372;2023-04-12T06:17:53;7.10;96.70
36374;DHT22;22399;51.346;12.372;2023-04-12T06:20:21;7.20;96.50
36374;DHT22;22399;51.346;12.372;2023-04-12T06:22:50;7.30;96.20
36374;DHT22;22399;51.346;12.372;2023-04-12T06:25:19;7.50;95.80
36374;DHT22;22399;51.346;12.372;2023-04-12T06:27:51;7.70;95.60
36374;DHT22;22399;51.346;12.372;2023-04-12T06:30:22;7.90;95.20
36374;DHT22;22399;51.346;12.372;2023-04-12T06:32:52;8.00;95.20
36374;DHT22;22399;51.346;12.372;2023-04-12T06:35:21;8.70;95.60
36374;DHT22;22399;51.346;12.372;2023-04-12T06:37:50;9.70;95.20
36374;DHT22;22399;51.346;12.372;2023-04-12T06:40:19;10.40;93.80
36374;DHT22;22399;51.346;12.372;2023-04-12T06:42:47;10.80;92.60
36374;DHT22;22399;51.346;12.372;2023-04-12T06:45:22;11.30;91.90
36374;DHT22;22399;51.346;12.372;2023-04-12T06:47:50;11.20;90.90
36374;DHT22;22399;51.346;12.372;2023-04-12T06:50:22;11.30;91.10
36374;DHT22;22399;51.346;12.372;2023-04-12T06:52:51;11.50;91.00
36374;DHT22;22399;51.346;12.372;2023-04-12T06:55:20;12.00;90.90
36374;DHT22;22399;51.346;12.372;2023-04-12T06:57:49;12.20;90.50
36374;DHT22;22399;51.346;12.372;2023-04-12T07:00:18;12.60;90.40
36374;DHT22;22399;51.346;12.372;2023-04-12T07:02:48;12.70;90.10
36374;DHT22;22399;51.346;12.372;2023-04-12T07:05:18;12.80;89.40
36374;DHT22;22399;51.346;12.372;2023-04-12T07:07:46;13.00;89.10
36374;DHT22;22399;51.346;12.372;2023-04-12T07:10:15;13.00;88.40
36374;DHT22;22399;51.346;12.372;2023-04-12T07:12:44;12.90;87.40
36374;DHT22;22399;51.346;12.372;2023-04-12T07:15:12;12.80;86.90
36374;DHT22;22399;51.346;12.372;2023-04-12T07:17:41;12.50;85.80
36374;DHT22;22399;51.346;12.372;2023-04-12T07:20:11;12.40;85.20
36374;DHT22;22399;51.346;12.372;2023-04-12T07:22:40;12.40;84.50
36374;DHT22;22399;51.346;12.372;2023-04-12T07:25:08;12.30;84.20
36374;DHT22;22399;51.346;12.372;2023-04-12T07:27:37;12.30;84.90
36374;DHT22;22399;51.346;12.372;2023-04-12T07:30:06;12.70;85.50
36374;DHT22;22399;51.346;12.372;2023-04-12T07:32:36;13.00;85.00
36374;DHT22;22399;51.346;12.372;2023-04-12T07:35:05;13.10;84.00
36374;DHT22;22399;51.346;12.372;2023-04-12T07:37:36;13.40;83.90
36374;DHT22;22399;51.346;12.372;2023-04-12T07:40:06;13.30;83.50
36374;DHT22;22399;51.346;12.372;2023-04-12T07:42:35;13.30;83.00
36374;DHT22;22399;51.346;12.372;2023-04-12T07:45:04;13.20;82.50
36374;DHT22;22399;51.346;12.372;2023-04-12T07:47:33;13.30;83.30
36374;DHT22;22399;51.346;12.372;2023-04-12T07:50:01;13.50;82.60
36374;DHT22;22399;51.346;12.372;2023-04-12T07:52:31;13.40;82.00
36374;DHT22;22399;51.346;12.372;2023-04-12T07:55:00;13.40;82.30
36374;DHT22;22399;51.346;12.372;2023-04-12T07:57:28;13.50;82.00
36374;DHT22;22399;51.346;12.372;2023-04-12T08:00:00;13.90;82.60
36374;DHT22;22399;51.346;12.372;2023-04-12T08:02:38;14.10;82.10
36374;DHT22;22399;51.346;12.372;2023-04-12T08:05:08;14.10;80.40
36374;DHT22;22399;51.346;12.372;2023-04-12T08:07:36;14.00;80.40
36374;DHT22;22399;51.346;12.372;2023-04-12T08:10:07;14.30;81.20
36374;DHT22;22399;51.346;12.372;2023-04-12T08:12:36;14.80;81.30
36374;DHT22;22399;51.346;12.372;2023-04-12T08:15:05;15.30;80.70
36374;DHT22;22399;51.346;12.372;2023-04-12T08:17:33;15.90;81.20
36374;DHT22;22399;51.346;12.372;2023-04-12T08:20:02;15.40;80.30
36374;DHT22;22399;51.346;12.372;2023-04-12T08:22:30;14.90;79.60
36374;DHT22;22399;51.346;12.372;2023-04-12T08:25:00;14.60;79.80
36374;DHT22;22399;51.346;12.372;2023-04-12T08:27:29;14.40;80.30
36374;DHT22;22399;51.346;12.372;2023-04-12T08:29:58;14.20;80.00
36374;DHT22;22399;51.346;12.372;2023-04-12T08:32:27;14.30;80.80
36374;DHT22;22399;51.346;12.372;2023-04-12T08:34:55;14.40;81.40
36374;DHT22;22399;51.346;12.372;2023-04-12T08:37:24;14.30;80.30
36374;DHT22;22399;51.346;12.372;2023-04-12T08:39:52;14.50;80.50
36374;DHT22;22399;51.346;12.372;2023-04-12T08:42:21;14.80;79.20
36374;DHT22;22399;51.346;12.372;2023-04-12T08:44:51;15.10;77.10
36374;DHT22;22399;51.346;12.372;2023-04-12T08:47:20;15.10;76.30
36374;DHT22;22399;51.346;12.372;2023-04-12T08:49:49;15.30;76.30
36374;DHT22;22399;51.346;12.372;2023-04-12T08:52:18;15.30;75.40
36374;DHT22;22399;51.346;12.372;2023-04-12T08:54:46;15.20;75.90
36374;DHT22;22399;51.346;12.372;2023-04-12T08:57:17;15.00;76.10
36374;DHT22;22399;51.346;12.372;2023-04-12T08:59:50;14.90;76.40
36374;DHT22;22399;51.346;12.372;2023-04-12T09:02:20;14.90;74.70
36374;DHT22;22399;51.346;12.372;2023-04-12T09:04:50;14.90;75.20
36374;DHT22;22399;51.346;12.372;2023-04-12T09:07:20;15.00;74.30
36374;DHT22;22399;51.346;12.372;2023-04-12T09:09:54;15.30;74.70
36374;DHT22;22399;51.346;12.372;2023-04-12T09:12:23;15.60;74.60
36374;DHT22;22399;51.346;12.372;2023-04-12T09:15:06;15.90;74.20
36374;DHT22;22399;51.346;12.372;2023-04-12T09:17:36;15.90;74.80
36374;DHT22;22399;51.346;12.372;2023-04-12T09:20:21;15.50;73.50
36374;DHT22;22399;51.346;12.372;2023-04-12T09:22:52;15.20;73.60
36374;DHT22;22399;51.346;12.372;2023-04-12T09:25:39;15.10;71.80
36374;DHT22;22399;51.346;12.372;2023-04-12T09:28:21;15.10;72.90
36374;DHT22;22399;51.346;12.372;2023-04-12T09:30:52;15.10;73.00
36374;DHT22;22399;51.346;12.372;2023-04-12T09:33:22;15.30;71.80
36374;DHT22;22399;51.346;12.372;2023-04-12T09:35:59;15.40;70.70
36374;DHT22;22399;51.346;12.372;2023-04-12T09:38:29;15.40;71.40
36374;DHT22;22399;51.346;12.372;2023-04-12T09:41:14;15.70;71.00
36374;DHT22;22399;51.346;12.372;2023-04-12T09:43:46;15.70;70.20
36374;DHT22;22399;51.346;12.372;2023-04-12T09:46:16;15.90;70.40
36374;DHT22;22399;51.346;12.372;2023-04-12T09:48:48;15.80;69.20
36374;DHT22;22399;51.346;12.372;2023-04-12T09:51:25;15.60;68.40
36374;DHT22;22399;51.346;12.372;2023-04-12T09:53:57;15.50;69.60
36374;DHT22;22399;51.346;12.372;2023-04-12T09:56:28;15.40;67.70
36374;DHT22;22399;51.346;12.372;2023-04-12T09:59:00;15.50;67.90
36374;DHT22;22399;51.346;12.372;2023-04-12T10:01:33;15.30;66.30
36374;DHT22;22399;51.346;12.372;2023-04-12T10:04:04;15.30;66.60
36374;DHT22;22399;51.346;12.372;2023-04-12T10:06:35;15.30;66.60
36374;DHT22;22399;51.346;12.372;2023-04-12T10:09:04;15.10;63.70
36374;DHT22;22399;51.346;12.372;2023-04-12T10:11:33;14.90;64.10
36374;DHT22;22399;51.346;12.372;2023-04-12T10:14:02;14.90;63.80
36374;DHT22;22399;51.346;12.372;2023-04-12T10:16:34;15.00;65.00
36374;DHT22;22399;51.346;12.372;2023-04-12T10:19:03;15.00;63.90
36374;DHT22;22399;51.346;12.372;2023-04-12T10:21:31;15.10;64.30
36374;DHT22;22399;51.346;12.372;2023-04-12T10:24:00;15.20;64.60
36374;DHT22;22399;51.346;12.372;2023-04-12T10:26:29;15.20;64.50
36374;DHT22;22399;51.346;12.372;2023-04-12T10:29:26;15.10;62.40
36374;DHT22;22399;51.346;12.372;2023-04-12T10:31:57;14.70;63.80
36374;DHT22;22399;51.346;12.372;2023-04-12T10:34:27;14.60;63.40
36374;DHT22;22399;51.346;12.372;2023-04-12T10:36:57;14.60;64.60
36374;DHT22;22399;51.346;12.372;2023-04-12T10:39:39;14.90;65.40
36374;DHT22;22399;51.346;12.372;2023-04-12T10:42:23;14.80;64.70
36374;DHT22;22399;51.346;12.372;2023-04-12T10:44:55;14.70;65.10
36374;DHT22;22399;51.346;12.372;2023-04-12T10:47:56;14.40;64.50
36374;DHT22;22399;51.346;12.372;2023-04-12T10:50:30;14.20;65.20
36374;DHT22;22399;51.346;12.372;2023-04-12T10:53:21;14.20;65.80
36374;DHT22;22399;51.346;12.372;2023-04-12T10:55:51;14.40;66.30
36374;DHT22;22399;51.346;12.372;2023-04-12T10:58:53;14.40;66.00
36374;DHT22;22399;51.346;12.372;2023-04-12T11:01:22;14.50;65.90
36374;DHT22;22399;51.346;12.372;2023-04-12T11:04:12;14.50;65.80
36374;DHT22;22399;51.346;12.372;2023-04-12T11:06:48;14.30;65.60
36374;DHT22;22399;51.346;12.372;2023-04-12T11:09:38;14.30;65.10
36374;DHT22;22399;51.346;12.372;2023-04-12T11:12:12;14.30;64.70
36374;DHT22;22399;51.346;12.372;2023-04-12T11:14:45;14.30;65.20
36374;DHT22;22399;51.346;12.372;2023-04-12T11:17:24;14.30;65.60
36374;DHT22;22399;51.346;12.372;2023-04-12T11:19:59;14.30;65.40
36374;DHT22;22399;51.346;12.372;2023-04-12T11:22:30;14.20;65.30
36374;DHT22;22399;51.346;12.372;2023-04-12T11:25:01;14.30;65.50
36374;DHT22;22399;51.346;12.372;2023-04-12T11:27:30;14.50;65.70
36374;DHT22;22399;51.346;12.372;2023-04-12T11:30:00;14.50;65.20
36374;DHT22;22399;51.346;12.372;2023-04-12T11:32:30;14.40;65.00
36374;DHT22;22399;51.346;12.372;2023-04-12T11:35:01;14.40;65.30
36374;DHT22;22399;51.346;12.372;2023-04-12T11:37:33;14.40;64.90
36374;DHT22;22399;51.346;12.372;2023-04-12T11:40:03;14.50;65.50
36374;DHT22;22399;51.346;12.372;2023-04-12T11:42:32;14.60;65.50
36374;DHT22;22399;51.346;12.372;2023-04-12T11:45:01;14.60;65.50
36374;DHT22;22399;51.346;12.372;2023-04-12T11:47:41;14.50;64.70
36374;DHT22;22399;51.346;12.372;2023-04-12T11:50:12;14.30;64.40
36374;DHT22;22399;51.346;12.372;2023-04-12T11:52:54;14.20;65.40
36374;DHT22;22399;51.346;12.372;2023-04-12T11:55:23;14.40;66.20
36374;DHT22;22399;51.346;12.372;2023-04-12T11:57:52;14.50;66.30
36374;DHT22;22399;51.346;12.372;2023-04-12T12:00:22;14.60;66.10
36374;DHT22;22399;51.346;12.372;2023-04-12T12:02:51;14.50;65.50
36374;DHT22;22399;51.346;12.372;2023-04-12T12:05:35;14.30;66.00
36374;DHT22;22399;51.346;12.372;2023-04-12T12:08:06;14.10;66.40
36374;DHT22;22399;51.346;12.372;2023-04-12T12:10:35;14.00;66.30
36374;DHT22;22399;51.346;12.372;2023-04-12T12:13:23;13.80;67.10
36374;DHT22;22399;51.346;12.372;2023-04-12T12:15:52;13.50;67.40
36374;DHT22;22399;51.346;12.372;2023-04-12T12:18:24;13.40;68.40
36374;DHT22;22399;51.346;12.372;2023-04-12T12:20:56;13.30;69.20
36374;DHT22;22399;51.346;12.372;2023-04-12T12:23:29;13.10;69.40
36374;DHT22;22399;51.346;12.372;2023-04-12T12:25:58;13.00;70.20
36374;DHT22;22399;51.346;12.372;2023-04-12T12:28:47;12.80;70.40
36374;DHT22;22399;51.346;12.372;2023-04-12T12:31:18;12.70;70.30
36374;DHT22;22399;51.346;12.372;2023-04-12T12:33:48;12.50;71.10
36374;DHT22;22399;51.346;12.372;2023-04-12T12:36:27;12.50;71.70
36374;DHT22;22399;51.346;12.372;2023-04-12T12:38:55;12.40;72.20
36374;DHT22;22399;51.346;12.372;2023-04-12T12:41:24;12.30;73.20
36374;DHT22;22399;51.346;12.372;2023-04-12T12:43:53;12.10;74.20
36374;DHT22;22399;51.346;12.372;2023-04-12T12:46:23;11.90;75.10
36374;DHT22;22399;51.346;12.372;2023-04-12T12:49:00;11.70;76.10
36374;DHT22;22399;51.346;12.372;2023-04-12T12:51:29;11.50;77.10
36374;DHT22;22399;51.346;12.372;2023-04-12T12:53:58;11.30;78.20
36374;DHT22;22399;51.346;12.372;2023-04-12T12:56:27;11.10;79.20
36374;DHT22;22399;51.346;12.372;2023-04-12T12:58:56;10.90;80.00
36374;DHT22;22399;51.346;12.372;2023-04-12T13:01:25;10.80;80.90
36374;DHT22;22399;51.346;12.372;2023-04-12T13:03:54;10.70;81.60
36374;DHT22;22399;51.346;12.372;2023-04-12T13:06:25;10.70;82.60
36374;DHT22;22399;51.346;12.372;2023-04-12T13:08:55;10.60;83.30
36374;DHT22;22399;51.346;12.372;2023-04-12T13:11:24;10.70;84.00
36374;DHT22;22399;51.346;12.372;2023-04-12T13:13:53;10.70;84.50
36374;DHT22;22399;51.346;12.372;2023-04-12T13:16:22;10.70;85.00
36374;DHT22;22399;51.346;12.372;2023-04-12T13:18:53;10.80;85.30
36374;DHT22;22399;51.346;12.372;2023-04-12T13:21:21;10.80;86.30
36374;DHT22;22399;51.346;12.372;2023-04-12T13:23:50;10.80;86.00
36374;DHT22;22399;51.346;12.372;2023-04-12T13:26:20;10.70;86.50
36374;DHT22;22399;51.346;12.372;2023-04-12T13:28:52;10.70;87.20
36374;DHT22;22399;51.346;12.372;2023-04-12T13:31:20;10.60;87.60
36374;DHT22;22399;51.346;12.372;2023-04-12T13:33:49;10.50;88.30
36374;DHT22;22399;51.346;12.372;2023-04-12T13:36:17;10.30;89.30
36374;DHT22;22399;51.346;12.372;2023-04-12T13:38:46;10.30;90.00
36374;DHT22;22399;51.346;12.372;2023-04-12T13:41:15;10.30;90.40
36374;DHT22;22399;51.346;12.372;2023-04-12T13:43:45;10.30;90.50
36374;DHT22;22399;51.346;12.372;2023-04-12T13:46:13;10.20;90.80
36374;DHT22;22399;51.346;12.372;2023-04-12T13:48:42;10.20;91.10
36374;DHT22;22399;51.346;12.372;2023-04-12T13:51:10;10.10;91.40
36374;DHT22;22399;51.346;12.372;2023-04-12T13:53:39;10.00;92.00
36374;DHT22;22399;51.346;12.372;2023-04-12T13:56:08;9.90;92.80
36374;DHT22;22399;51.346;12.372;2023-04-12T13:58:36;9.90;94.00
36374;DHT22;22399;51.346;12.372;2023-04-12T14:01:07;9.90;95.20
36374;DHT22;22399;51.346;12.372;2023-04-12T14:03:36;9.90;96.20
36374;DHT22;22399;51.346;12.372;2023-04-12T14:06:06;9.80;97.20
36374;DHT22;22399;51.346;12.372;2023-04-12T14:08:35;9.80;98.30
36374;DHT22;22399;51.346;12.372;2023-04-12T14:11:04;9.80;99.70
36374;DHT22;22399;51.346;12.372;2023-04-12T14:13:33;9.70;99.90
36374;DHT22;22399;51.346;12.372;2023-04-12T14:16:01;9.60;99.90
36374;DHT22;22399;51.346;12.372;2023-04-12T14:18:31;9.60;99.90
36374;DHT22;22399;51.346;12.372;2023-04-12T14:21:00;9.50;99.90
36374;DHT22;22399;51.346;12.372;2023-04-12T14:23:30;9.50;99.90
36374;DHT22;22399;51.346;12.372;2023-04-12T14:25:59;9.50;99.90
36374;DHT22;22399;51.346;12.372;2023-04-12T14:28:27;9.50;99.90
36374;DHT22;22399;51.346;12.372;2023-04-12T14:30:57;9.50;99.90
36374;DHT22;22399;51.346;12.372;2023-04-12T14:33:33;9.50;99.90
36374;DHT22;22399;51.346;12.372;2023-04-12T14:36:01;9.50;99.90
36374;DHT22;22399;51.346;12.372;2023-04-12T14:38:31;9.60;99.90
36374;DHT22;22399;51.346;12.372;2023-04-12T14:41:00;9.70;99.90
36374;DHT22;22399;51.346;12.372;2023-04-12T14:43:34;9.90;99.90
36374;DHT22;22399;51.346;12.372;2023-04-12T14:46:02;10.00;99.90
36374;DHT22;22399;51.346;12.372;2023-04-12T14:48:33;10.00;99.90
36374;DHT22;22399;51.346;12.372;2023-04-12T14:51:01;10.00;99.90
36374;DHT22;22399;51.346;12.372;2023-04-12T14:53:30;9.90;99.90
36374;DHT22;22399;51.346;12.372;2023-04-12T14:55:59;9.80;99.90
36374;DHT22;22399;51.346;12.372;2023-04-12T14:58:29;9.90;99.90
36374;DHT22;22399;51.346;12.372;2023-04-12T15:00:57;9.80;99.90
36374;DHT22;22399;51.346;12.372;2023-04-12T15:03:27;9.80;99.90
36374;DHT22;22399;51.346;12.372;2023-04-12T15:06:01;9.80;99.90
36374;DHT22;22399;51.346;12.372;2023-04-12T15:08:29;9.80;99.90
36374;DHT22;22399;51.346;12.372;2023-04-12T15:10:58;9.80;99.90
36374;DHT22;22399;51.346;12.372;2023-04-12T15:13:27;9.80;99.90
36374;DHT22;22399;51.346;12.372;2023-04-12T15:16:00;9.90;99.90
36374;DHT22;22399;51.346;12.372;2023-04-12T15:18:29;10.00;99.90
36374;DHT22;22399;51.346;12.372;2023-04-12T15:20:57;10.20;99.90
36374;DHT22;22399;51.346;12.372;2023-04-12T15:23:27;10.20;99.90
36374;DHT22;22399;51.346;12.372;2023-04-12T15:25:57;10.30;99.90
36374;DHT22;22399;51.346;12.372;2023-04-12T15:28:27;10.30;99.90
36374;DHT22;22399;51.346;12.372;2023-04-12T15:30:55;10.40;99.90
36374;DHT22;22399;51.346;12.372;2023-04-12T15:33:24;10.40;99.90
36374;DHT22;22399;51.346;12.372;2023-04-12T15:35:53;10.40;99.90
36374;DHT22;22399;51.346;12.372;2023-04-12T15:38:23;10.40;99.90
36374;DHT22;22399;51.346;12.372;2023-04-12T15:40:55;10.40;99.90
36374;DHT22;22399;51.346;12.372;2023-04-12T15:43:24;10.30;99.90
36374;DHT22;22399;51.346;12.372;2023-04-12T15:45:52;10.30;99.90
36374;DHT22;22399;51.346;12.372;2023-04-12T15:48:22;10.30;99.90